sensor_id;sensor_type;location;lat;lon;timestamp;P1;durP1;ratioP1;P2;durP2;ratioP2
74626;SDS011;63132;52.268;5.192;2023-08-21T00:02:14;7.33;;;2.60;;
74626;SDS011;63132;52.268;5.192;2023-08-21T00:07:05;6.87;;;2.37;;
74626;SDS011;63132;52.268;5.192;2023-08-21T00:09:31;10.98;;;2.95;;
74626;SDS011;63132;52.268;5.192;2023-08-21T00:14:22;9.27;;;3.10;;
74626;SDS011;63132;52.268;5.192;2023-08-21T00:16:47;10.45;;;2.65;;
74626;SDS011;63132;52.268;5.192;2023-08-21T00:21:38;7.10;;;2.40;;
74626;SDS011;63132;52.268;5.192;2023-08-21T00:26:29;10.45;;;2.75;;
74626;SDS011;63132;52.268;5.192;2023-08-21T00:31:19;8.60;;;2.87;;
74626;SDS011;63132;52.268;5.192;2023-08-21T00:36:10;10.67;;;3.00;;
74626;SDS011;63132;52.268;5.192;2023-08-21T00:41:01;6.20;;;2.60;;
74626;SDS011;63132;52.268;5.192;2023-08-21T00:45:51;8.10;;;2.80;;
74626;SDS011;63132;52.268;5.192;2023-08-21T00:48:17;7.32;;;2.70;;
74626;SDS011;63132;52.268;5.192;2023-08-21T00:53:10;6.90;;;2.75;;
74626;SDS011;63132;52.268;5.192;2023-08-21T00:55:35;12.15;;;3.45;;
74626;SDS011;63132;52.268;5.192;2023-08-21T00:58:02;8.25;;;2.90;;
74626;SDS011;63132;52.268;5.192;2023-08-21T01:00:28;8.20;;;2.40;;
74626;SDS011;63132;52.268;5.192;2023-08-21T01:02:55;7.63;;;3.38;;
74626;SDS011;63132;52.268;5.192;2023-08-21T01:07:52;7.72;;;2.90;;
74626;SDS011;63132;52.268;5.192;2023-08-21T01:10:36;9.40;;;3.15;;
74626;SDS011;63132;52.268;5.192;2023-08-21T01:15:52;8.35;;;3.15;;
74626;SDS011;63132;52.268;5.192;2023-08-21T01:18:20;12.75;;;2.92;;
74626;SDS011;63132;52.268;5.192;2023-08-21T01:20:47;9.25;;;2.92;;
74626;SDS011;63132;52.268;5.192;2023-08-21T01:26:11;9.05;;;3.30;;
74626;SDS011;63132;52.268;5.192;2023-08-21T01:31:07;12.25;;;3.05;;
74626;SDS011;63132;52.268;5.192;2023-08-21T01:33:39;8.85;;;3.03;;
74626;SDS011;63132;52.268;5.192;2023-08-21T01:36:09;10.40;;;3.42;;
74626;SDS011;63132;52.268;5.192;2023-08-21T01:38:36;9.07;;;2.85;;
74626;SDS011;63132;52.268;5.192;2023-08-21T01:41:02;6.93;;;2.50;;
74626;SDS011;63132;52.268;5.192;2023-08-21T01:45:53;9.45;;;2.83;;
74626;SDS011;63132;52.268;5.192;2023-08-21T01:48:19;8.25;;;2.95;;
74626;SDS011;63132;52.268;5.192;2023-08-21T01:53:10;8.73;;;2.90;;
74626;SDS011;63132;52.268;5.192;2023-08-21T01:58:00;10.85;;;3.40;;
74626;SDS011;63132;52.268;5.192;2023-08-21T02:00:26;6.65;;;2.95;;
74626;SDS011;63132;52.268;5.192;2023-08-21T02:05:16;10.50;;;3.10;;
74626;SDS011;63132;52.268;5.192;2023-08-21T02:10:07;8.63;;;2.90;;
74626;SDS011;63132;52.268;5.192;2023-08-21T02:14:58;7.85;;;3.47;;
74626;SDS011;63132;52.268;5.192;2023-08-21T02:17:26;10.52;;;3.10;;
74626;SDS011;63132;52.268;5.192;2023-08-21T02:19:51;14.27;;;2.90;;
74626;SDS011;63132;52.268;5.192;2023-08-21T02:24:42;11.83;;;3.60;;
74626;SDS011;63132;52.268;5.192;2023-08-21T02:29:32;10.68;;;3.25;;
74626;SDS011;63132;52.268;5.192;2023-08-21T02:31:58;8.65;;;3.03;;
74626;SDS011;63132;52.268;5.192;2023-08-21T02:36:49;7.70;;;2.67;;
74626;SDS011;63132;52.268;5.192;2023-08-21T02:39:14;9.35;;;3.10;;
74626;SDS011;63132;52.268;5.192;2023-08-21T02:41:40;10.57;;;3.60;;
74626;SDS011;63132;52.268;5.192;2023-08-21T02:46:30;7.47;;;3.23;;
74626;SDS011;63132;52.268;5.192;2023-08-21T02:51:21;10.73;;;3.50;;
74626;SDS011;63132;52.268;5.192;2023-08-21T02:56:11;7.13;;;3.10;;
74626;SDS011;63132;52.268;5.192;2023-08-21T03:01:02;11.10;;;3.57;;
74626;SDS011;63132;52.268;5.192;2023-08-21T03:05:52;8.93;;;3.53;;
74626;SDS011;63132;52.268;5.192;2023-08-21T03:10:43;8.60;;;3.05;;
74626;SDS011;63132;52.268;5.192;2023-08-21T03:15:34;11.43;;;3.03;;
74626;SDS011;63132;52.268;5.192;2023-08-21T03:20:25;7.53;;;3.17;;
74626;SDS011;63132;52.268;5.192;2023-08-21T03:25:15;7.78;;;2.75;;
74626;SDS011;63132;52.268;5.192;2023-08-21T03:30:09;10.10;;;4.03;;
74626;SDS011;63132;52.268;5.192;2023-08-21T03:35:00;8.93;;;3.35;;
74626;SDS011;63132;52.268;5.192;2023-08-21T03:39:51;8.02;;;2.88;;
74626;SDS011;63132;52.268;5.192;2023-08-21T03:44:41;8.30;;;3.07;;
74626;SDS011;63132;52.268;5.192;2023-08-21T03:49:32;7.20;;;3.20;;
74626;SDS011;63132;52.268;5.192;2023-08-21T03:54:23;9.83;;;3.50;;
74626;SDS011;63132;52.268;5.192;2023-08-21T03:59:13;6.00;;;3.35;;
74626;SDS011;63132;52.268;5.192;2023-08-21T04:04:04;10.67;;;3.33;;
74626;SDS011;63132;52.268;5.192;2023-08-21T04:06:29;12.05;;;3.70;;
74626;SDS011;63132;52.268;5.192;2023-08-21T04:11:20;7.78;;;3.30;;
74626;SDS011;63132;52.268;5.192;2023-08-21T04:16:10;11.45;;;4.50;;
74626;SDS011;63132;52.268;5.192;2023-08-21T04:18:37;10.23;;;3.35;;
74626;SDS011;63132;52.268;5.192;2023-08-21T04:21:03;6.05;;;3.03;;
74626;SDS011;63132;52.268;5.192;2023-08-21T04:25:59;8.27;;;3.30;;
74626;SDS011;63132;52.268;5.192;2023-08-21T04:28:25;7.22;;;3.25;;
74626;SDS011;63132;52.268;5.192;2023-08-21T04:33:16;9.45;;;3.53;;
74626;SDS011;63132;52.268;5.192;2023-08-21T04:38:06;7.20;;;3.37;;
74626;SDS011;63132;52.268;5.192;2023-08-21T04:42:57;8.43;;;3.13;;
74626;SDS011;63132;52.268;5.192;2023-08-21T04:47:48;8.67;;;3.27;;
74626;SDS011;63132;52.268;5.192;2023-08-21T04:52:40;7.93;;;3.38;;
74626;SDS011;63132;52.268;5.192;2023-08-21T04:57:32;8.10;;;3.63;;
74626;SDS011;63132;52.268;5.192;2023-08-21T04:59:57;13.38;;;3.72;;
74626;SDS011;63132;52.268;5.192;2023-08-21T05:04:48;5.97;;;3.05;;
74626;SDS011;63132;52.268;5.192;2023-08-21T05:09:39;11.00;;;3.55;;
74626;SDS011;63132;52.268;5.192;2023-08-21T05:14:30;7.32;;;3.22;;
74626;SDS011;63132;52.268;5.192;2023-08-21T05:19:20;7.73;;;2.93;;
74626;SDS011;63132;52.268;5.192;2023-08-21T05:24:11;10.77;;;3.50;;
74626;SDS011;63132;52.268;5.192;2023-08-21T05:29:02;9.68;;;3.55;;
74626;SDS011;63132;52.268;5.192;2023-08-21T05:33:53;8.35;;;3.03;;
74626;SDS011;63132;52.268;5.192;2023-08-21T05:36:18;11.93;;;3.65;;
74626;SDS011;63132;52.268;5.192;2023-08-21T05:38:44;14.80;;;4.00;;
74626;SDS011;63132;52.268;5.192;2023-08-21T05:43:35;14.52;;;4.15;;
74626;SDS011;63132;52.268;5.192;2023-08-21T05:48:26;12.00;;;4.85;;
74626;SDS011;63132;52.268;5.192;2023-08-21T05:53:17;6.13;;;3.35;;
74626;SDS011;63132;52.268;5.192;2023-08-21T05:58:07;9.10;;;4.23;;
74626;SDS011;63132;52.268;5.192;2023-08-21T06:02:58;14.38;;;4.38;;
74626;SDS011;63132;52.268;5.192;2023-08-21T06:07:49;8.00;;;3.17;;
74626;SDS011;63132;52.268;5.192;2023-08-21T06:10:14;7.25;;;3.22;;
74626;SDS011;63132;52.268;5.192;2023-08-21T06:12:40;9.70;;;3.45;;
74626;SDS011;63132;52.268;5.192;2023-08-21T06:15:06;8.90;;;3.75;;
74626;SDS011;63132;52.268;5.192;2023-08-21T06:17:35;7.95;;;3.70;;
74626;SDS011;63132;52.268;5.192;2023-08-21T06:20:01;10.63;;;3.75;;
74626;SDS011;63132;52.268;5.192;2023-08-21T06:22:28;9.85;;;4.63;;
74626;SDS011;63132;52.268;5.192;2023-08-21T06:24:53;7.57;;;3.60;;
74626;SDS011;63132;52.268;5.192;2023-08-21T06:27:18;10.43;;;3.95;;
74626;SDS011;63132;52.268;5.192;2023-08-21T06:29:44;10.43;;;3.78;;
74626;SDS011;63132;52.268;5.192;2023-08-21T06:32:09;12.25;;;3.85;;
74626;SDS011;63132;52.268;5.192;2023-08-21T06:34:35;9.93;;;3.28;;
74626;SDS011;63132;52.268;5.192;2023-08-21T06:37:00;17.38;;;3.90;;
74626;SDS011;63132;52.268;5.192;2023-08-21T06:39:25;8.77;;;2.97;;
74626;SDS011;63132;52.268;5.192;2023-08-21T06:41:51;8.00;;;3.03;;
74626;SDS011;63132;52.268;5.192;2023-08-21T06:44:16;6.93;;;2.90;;
74626;SDS011;63132;52.268;5.192;2023-08-21T06:46:42;8.55;;;3.15;;
74626;SDS011;63132;52.268;5.192;2023-08-21T06:49:08;9.55;;;3.80;;
74626;SDS011;63132;52.268;5.192;2023-08-21T06:51:33;13.23;;;3.53;;
74626;SDS011;63132;52.268;5.192;2023-08-21T06:53:58;14.55;;;2.83;;
74626;SDS011;63132;52.268;5.192;2023-08-21T06:56:24;10.45;;;2.90;;
74626;SDS011;63132;52.268;5.192;2023-08-21T06:58:49;10.98;;;2.97;;
74626;SDS011;63132;52.268;5.192;2023-08-21T07:01:15;11.65;;;2.80;;
74626;SDS011;63132;52.268;5.192;2023-08-21T07:03:40;8.10;;;2.47;;
74626;SDS011;63132;52.268;5.192;2023-08-21T07:06:05;9.45;;;2.85;;
74626;SDS011;63132;52.268;5.192;2023-08-21T07:08:31;9.05;;;2.83;;
74626;SDS011;63132;52.268;5.192;2023-08-21T07:10:56;9.48;;;2.30;;
74626;SDS011;63132;52.268;5.192;2023-08-21T07:13:21;6.28;;;2.72;;
74626;SDS011;63132;52.268;5.192;2023-08-21T07:15:47;9.75;;;3.00;;
74626;SDS011;63132;52.268;5.192;2023-08-21T07:18:13;10.95;;;2.58;;
74626;SDS011;63132;52.268;5.192;2023-08-21T07:20:39;10.13;;;2.80;;
74626;SDS011;63132;52.268;5.192;2023-08-21T07:23:04;9.68;;;2.42;;
74626;SDS011;63132;52.268;5.192;2023-08-21T07:25:30;8.00;;;2.25;;
74626;SDS011;63132;52.268;5.192;2023-08-21T07:27:55;7.20;;;2.38;;
74626;SDS011;63132;52.268;5.192;2023-08-21T07:30:21;9.27;;;2.55;;
74626;SDS011;63132;52.268;5.192;2023-08-21T07:32:47;10.68;;;2.95;;
74626;SDS011;63132;52.268;5.192;2023-08-21T07:35:13;9.30;;;2.88;;
74626;SDS011;63132;52.268;5.192;2023-08-21T07:37:39;6.25;;;2.03;;
74626;SDS011;63132;52.268;5.192;2023-08-21T07:40:06;10.65;;;2.30;;
74626;SDS011;63132;52.268;5.192;2023-08-21T07:42:32;5.63;;;2.33;;
74626;SDS011;63132;52.268;5.192;2023-08-21T07:44:57;7.43;;;2.67;;
74626;SDS011;63132;52.268;5.192;2023-08-21T07:47:22;11.38;;;3.00;;
74626;SDS011;63132;52.268;5.192;2023-08-21T07:49:48;9.15;;;2.15;;
74626;SDS011;63132;52.268;5.192;2023-08-21T07:52:13;12.05;;;2.13;;
74626;SDS011;63132;52.268;5.192;2023-08-21T07:54:40;7.78;;;1.80;;
74626;SDS011;63132;52.268;5.192;2023-08-21T07:57:05;12.65;;;2.05;;
74626;SDS011;63132;52.268;5.192;2023-08-21T07:59:31;7.57;;;1.70;;
74626;SDS011;63132;52.268;5.192;2023-08-21T08:01:57;8.20;;;1.98;;
74626;SDS011;63132;52.268;5.192;2023-08-21T08:04:22;9.68;;;2.33;;
74626;SDS011;63132;52.268;5.192;2023-08-21T08:06:47;8.90;;;2.00;;
74626;SDS011;63132;52.268;5.192;2023-08-21T08:09:13;9.18;;;2.33;;
74626;SDS011;63132;52.268;5.192;2023-08-21T08:11:38;6.50;;;1.77;;
74626;SDS011;63132;52.268;5.192;2023-08-21T08:14:04;8.15;;;1.73;;
74626;SDS011;63132;52.268;5.192;2023-08-21T08:16:29;11.45;;;2.03;;
74626;SDS011;63132;52.268;5.192;2023-08-21T08:18:55;6.53;;;1.40;;
74626;SDS011;63132;52.268;5.192;2023-08-21T08:21:20;12.05;;;1.80;;
74626;SDS011;63132;52.268;5.192;2023-08-21T08:23:45;7.60;;;1.83;;
74626;SDS011;63132;52.268;5.192;2023-08-21T08:26:11;10.38;;;1.70;;
74626;SDS011;63132;52.268;5.192;2023-08-21T08:28:36;10.15;;;1.98;;
74626;SDS011;63132;52.268;5.192;2023-08-21T08:31:02;10.07;;;2.03;;
74626;SDS011;63132;52.268;5.192;2023-08-21T08:33:27;9.13;;;1.98;;
74626;SDS011;63132;52.268;5.192;2023-08-21T08:35:52;8.30;;;1.90;;
74626;SDS011;63132;52.268;5.192;2023-08-21T08:38:18;13.80;;;2.35;;
74626;SDS011;63132;52.268;5.192;2023-08-21T08:40:44;7.28;;;2.10;;
74626;SDS011;63132;52.268;5.192;2023-08-21T08:43:11;8.43;;;1.95;;
74626;SDS011;63132;52.268;5.192;2023-08-21T08:45:37;9.07;;;2.00;;
74626;SDS011;63132;52.268;5.192;2023-08-21T08:48:04;10.95;;;2.78;;
74626;SDS011;63132;52.268;5.192;2023-08-21T08:50:31;12.73;;;2.22;;
74626;SDS011;63132;52.268;5.192;2023-08-21T08:52:57;10.27;;;2.30;;
74626;SDS011;63132;52.268;5.192;2023-08-21T08:55:23;9.32;;;1.98;;
74626;SDS011;63132;52.268;5.192;2023-08-21T08:57:49;6.75;;;1.85;;
74626;SDS011;63132;52.268;5.192;2023-08-21T09:00:15;9.48;;;1.65;;
74626;SDS011;63132;52.268;5.192;2023-08-21T09:02:40;8.45;;;2.20;;
74626;SDS011;63132;52.268;5.192;2023-08-21T09:05:06;6.95;;;2.15;;
74626;SDS011;63132;52.268;5.192;2023-08-21T09:07:33;9.80;;;2.38;;
74626;SDS011;63132;52.268;5.192;2023-08-21T09:09:59;11.48;;;2.25;;
74626;SDS011;63132;52.268;5.192;2023-08-21T09:12:25;6.80;;;1.58;;
74626;SDS011;63132;52.268;5.192;2023-08-21T09:14:51;8.85;;;2.08;;
74626;SDS011;63132;52.268;5.192;2023-08-21T09:17:16;5.88;;;1.55;;
74626;SDS011;63132;52.268;5.192;2023-08-21T09:19:42;9.43;;;2.03;;
74626;SDS011;63132;52.268;5.192;2023-08-21T09:22:11;6.65;;;1.90;;
74626;SDS011;63132;52.268;5.192;2023-08-21T09:24:39;9.40;;;2.20;;
74626;SDS011;63132;52.268;5.192;2023-08-21T09:27:39;9.52;;;2.08;;
74626;SDS011;63132;52.268;5.192;2023-08-21T09:30:03;10.15;;;2.40;;
74626;SDS011;63132;52.268;5.192;2023-08-21T09:32:29;7.28;;;1.77;;
74626;SDS011;63132;52.268;5.192;2023-08-21T09:34:54;6.70;;;1.98;;
74626;SDS011;63132;52.268;5.192;2023-08-21T09:37:19;8.15;;;1.70;;
74626;SDS011;63132;52.268;5.192;2023-08-21T09:39:45;7.28;;;1.90;;
74626;SDS011;63132;52.268;5.192;2023-08-21T09:42:11;9.65;;;2.13;;
74626;SDS011;63132;52.268;5.192;2023-08-21T09:44:37;4.80;;;1.95;;
74626;SDS011;63132;52.268;5.192;2023-08-21T09:47:04;7.70;;;2.22;;
74626;SDS011;63132;52.268;5.192;2023-08-21T09:49:33;8.32;;;2.20;;
74626;SDS011;63132;52.268;5.192;2023-08-21T09:51:59;8.55;;;2.25;;
74626;SDS011;63132;52.268;5.192;2023-08-21T09:54:26;6.05;;;1.90;;
74626;SDS011;63132;52.268;5.192;2023-08-21T09:56:51;7.25;;;1.70;;
74626;SDS011;63132;52.268;5.192;2023-08-21T09:59:17;6.80;;;2.28;;
74626;SDS011;63132;52.268;5.192;2023-08-21T10:01:43;4.13;;;1.65;;
74626;SDS011;63132;52.268;5.192;2023-08-21T10:04:12;8.85;;;2.05;;
74626;SDS011;63132;52.268;5.192;2023-08-21T10:06:38;9.00;;;1.88;;
74626;SDS011;63132;52.268;5.192;2023-08-21T10:09:04;10.82;;;2.42;;
74626;SDS011;63132;52.268;5.192;2023-08-21T10:11:29;8.75;;;2.30;;
74626;SDS011;63132;52.268;5.192;2023-08-21T10:13:55;12.55;;;3.30;;
74626;SDS011;63132;52.268;5.192;2023-08-21T10:16:21;12.02;;;3.08;;
74626;SDS011;63132;52.268;5.192;2023-08-21T10:18:47;7.97;;;2.40;;
74626;SDS011;63132;52.268;5.192;2023-08-21T10:23:46;8.18;;;2.60;;
74626;SDS011;63132;52.268;5.192;2023-08-21T10:26:15;10.52;;;2.33;;
74626;SDS011;63132;52.268;5.192;2023-08-21T10:28:51;6.35;;;2.13;;
74626;SDS011;63132;52.268;5.192;2023-08-21T10:31:37;10.70;;;2.72;;
74626;SDS011;63132;52.268;5.192;2023-08-21T10:37:04;9.02;;;2.50;;
74626;SDS011;63132;52.268;5.192;2023-08-21T10:39:25;9.32;;;2.50;;
74626;SDS011;63132;52.268;5.192;2023-08-21T10:42:08;6.90;;;1.60;;
74626;SDS011;63132;52.268;5.192;2023-08-21T10:44:35;5.72;;;1.85;;
74626;SDS011;63132;52.268;5.192;2023-08-21T10:49:42;7.78;;;2.15;;
74626;SDS011;63132;52.268;5.192;2023-08-21T10:52:20;7.70;;;2.00;;
74626;SDS011;63132;52.268;5.192;2023-08-21T10:54:51;4.47;;;1.77;;
74626;SDS011;63132;52.268;5.192;2023-08-21T10:57:18;8.02;;;1.73;;
74626;SDS011;63132;52.268;5.192;2023-08-21T11:00:05;7.57;;;1.95;;
74626;SDS011;63132;52.268;5.192;2023-08-21T11:02:33;9.68;;;1.75;;
74626;SDS011;63132;52.268;5.192;2023-08-21T11:04:59;8.27;;;2.03;;
74626;SDS011;63132;52.268;5.192;2023-08-21T11:07:26;5.35;;;1.50;;
74626;SDS011;63132;52.268;5.192;2023-08-21T11:09:52;5.32;;;1.50;;
74626;SDS011;63132;52.268;5.192;2023-08-21T11:12:18;6.88;;;1.40;;
74626;SDS011;63132;52.268;5.192;2023-08-21T11:14:45;9.27;;;1.77;;
74626;SDS011;63132;52.268;5.192;2023-08-21T11:17:11;9.20;;;1.70;;
74626;SDS011;63132;52.268;5.192;2023-08-21T11:19:37;6.63;;;1.40;;
74626;SDS011;63132;52.268;5.192;2023-08-21T11:22:04;3.65;;;1.30;;
74626;SDS011;63132;52.268;5.192;2023-08-21T11:24:38;5.38;;;1.60;;
74626;SDS011;63132;52.268;5.192;2023-08-21T11:27:11;5.38;;;1.50;;
74626;SDS011;63132;52.268;5.192;2023-08-21T11:29:39;6.57;;;1.20;;
74626;SDS011;63132;52.268;5.192;2023-08-21T11:32:09;7.03;;;1.23;;
74626;SDS011;63132;52.268;5.192;2023-08-21T11:34:36;9.23;;;1.50;;
74626;SDS011;63132;52.268;5.192;2023-08-21T11:37:03;5.32;;;1.95;;
74626;SDS011;63132;52.268;5.192;2023-08-21T11:39:38;10.57;;;2.22;;
74626;SDS011;63132;52.268;5.192;2023-08-21T11:42:08;4.38;;;1.45;;
74626;SDS011;63132;52.268;5.192;2023-08-21T11:44:41;7.25;;;2.13;;
74626;SDS011;63132;52.268;5.192;2023-08-21T11:47:11;7.88;;;2.22;;
74626;SDS011;63132;52.268;5.192;2023-08-21T11:49:40;5.25;;;1.30;;
74626;SDS011;63132;52.268;5.192;2023-08-21T11:52:07;6.65;;;1.73;;
74626;SDS011;63132;52.268;5.192;2023-08-21T11:54:37;5.60;;;1.85;;
74626;SDS011;63132;52.268;5.192;2023-08-21T11:57:04;6.85;;;2.00;;
74626;SDS011;63132;52.268;5.192;2023-08-21T11:59:34;7.97;;;2.13;;
74626;SDS011;63132;52.268;5.192;2023-08-21T12:02:00;8.88;;;1.77;;
74626;SDS011;63132;52.268;5.192;2023-08-21T12:04:26;7.00;;;2.20;;
74626;SDS011;63132;52.268;5.192;2023-08-21T12:06:52;9.10;;;2.03;;
74626;SDS011;63132;52.268;5.192;2023-08-21T12:09:17;7.70;;;2.30;;
74626;SDS011;63132;52.268;5.192;2023-08-21T12:11:44;7.72;;;2.20;;
74626;SDS011;63132;52.268;5.192;2023-08-21T12:14:10;10.73;;;1.75;;
74626;SDS011;63132;52.268;5.192;2023-08-21T12:16:36;4.57;;;1.55;;
74626;SDS011;63132;52.268;5.192;2023-08-21T12:19:02;7.60;;;2.03;;
74626;SDS011;63132;52.268;5.192;2023-08-21T12:21:28;8.25;;;2.08;;
74626;SDS011;63132;52.268;5.192;2023-08-21T12:23:53;5.18;;;1.60;;
74626;SDS011;63132;52.268;5.192;2023-08-21T12:26:19;8.20;;;2.53;;
74626;SDS011;63132;52.268;5.192;2023-08-21T12:28:48;8.60;;;2.00;;
74626;SDS011;63132;52.268;5.192;2023-08-21T12:31:14;4.63;;;1.85;;
74626;SDS011;63132;52.268;5.192;2023-08-21T12:33:40;5.47;;;1.40;;
74626;SDS011;63132;52.268;5.192;2023-08-21T12:36:06;3.38;;;1.52;;
74626;SDS011;63132;52.268;5.192;2023-08-21T12:38:31;5.93;;;2.25;;
74626;SDS011;63132;52.268;5.192;2023-08-21T12:40:57;7.25;;;1.52;;
74626;SDS011;63132;52.268;5.192;2023-08-21T12:43:23;5.82;;;2.00;;
74626;SDS011;63132;52.268;5.192;2023-08-21T12:45:48;4.60;;;1.77;;
74626;SDS011;63132;52.268;5.192;2023-08-21T12:48:13;9.77;;;1.80;;
74626;SDS011;63132;52.268;5.192;2023-08-21T12:50:39;5.10;;;1.40;;
74626;SDS011;63132;52.268;5.192;2023-08-21T12:53:05;5.65;;;1.55;;
74626;SDS011;63132;52.268;5.192;2023-08-21T12:55:30;6.00;;;1.67;;
74626;SDS011;63132;52.268;5.192;2023-08-21T12:57:56;5.20;;;1.40;;
74626;SDS011;63132;52.268;5.192;2023-08-21T13:00:21;10.15;;;3.25;;
74626;SDS011;63132;52.268;5.192;2023-08-21T13:02:47;4.30;;;1.20;;
74626;SDS011;63132;52.268;5.192;2023-08-21T13:05:13;11.50;;;1.55;;
74626;SDS011;63132;52.268;5.192;2023-08-21T13:07:39;7.97;;;1.30;;
74626;SDS011;63132;52.268;5.192;2023-08-21T13:10:04;4.20;;;1.10;;
74626;SDS011;63132;52.268;5.192;2023-08-21T13:12:30;6.03;;;1.35;;
74626;SDS011;63132;52.268;5.192;2023-08-21T13:14:55;4.40;;;1.20;;
74626;SDS011;63132;52.268;5.192;2023-08-21T13:17:21;3.65;;;1.13;;
74626;SDS011;63132;52.268;5.192;2023-08-21T13:19:46;4.88;;;1.35;;
74626;SDS011;63132;52.268;5.192;2023-08-21T13:22:11;6.22;;;1.42;;
74626;SDS011;63132;52.268;5.192;2023-08-21T13:24:37;4.53;;;1.30;;
74626;SDS011;63132;52.268;5.192;2023-08-21T13:27:02;3.95;;;1.00;;
74626;SDS011;63132;52.268;5.192;2023-08-21T13:29:27;5.38;;;0.95;;
74626;SDS011;63132;52.268;5.192;2023-08-21T13:31:53;4.95;;;1.20;;
74626;SDS011;63132;52.268;5.192;2023-08-21T13:34:18;3.00;;;1.00;;
74626;SDS011;63132;52.268;5.192;2023-08-21T13:36:44;2.95;;;1.00;;
74626;SDS011;63132;52.268;5.192;2023-08-21T13:39:09;2.83;;;0.70;;
74626;SDS011;63132;52.268;5.192;2023-08-21T13:41:36;4.00;;;1.13;;
74626;SDS011;63132;52.268;5.192;2023-08-21T13:44:01;7.35;;;1.17;;
74626;SDS011;63132;52.268;5.192;2023-08-21T13:46:28;4.25;;;0.98;;
74626;SDS011;63132;52.268;5.192;2023-08-21T13:48:53;4.18;;;0.85;;
74626;SDS011;63132;52.268;5.192;2023-08-21T13:51:19;4.25;;;1.30;;
74626;SDS011;63132;52.268;5.192;2023-08-21T13:53:44;2.70;;;0.80;;
74626;SDS011;63132;52.268;5.192;2023-08-21T13:56:10;4.47;;;0.70;;
74626;SDS011;63132;52.268;5.192;2023-08-21T13:58:35;4.00;;;1.00;;
74626;SDS011;63132;52.268;5.192;2023-08-21T14:01:01;5.03;;;1.02;;
74626;SDS011;63132;52.268;5.192;2023-08-21T14:03:26;1.63;;;1.00;;
74626;SDS011;63132;52.268;5.192;2023-08-21T14:05:51;5.60;;;1.05;;
74626;SDS011;63132;52.268;5.192;2023-08-21T14:08:17;4.05;;;0.80;;
74626;SDS011;63132;52.268;5.192;2023-08-21T14:10:43;5.43;;;1.05;;
74626;SDS011;63132;52.268;5.192;2023-08-21T14:13:09;3.60;;;1.05;;
74626;SDS011;63132;52.268;5.192;2023-08-21T14:15:34;1.83;;;0.80;;
74626;SDS011;63132;52.268;5.192;2023-08-21T14:18:00;2.83;;;0.98;;
74626;SDS011;63132;52.268;5.192;2023-08-21T14:20:25;4.22;;;1.23;;
74626;SDS011;63132;52.268;5.192;2023-08-21T14:22:50;3.72;;;1.20;;
74626;SDS011;63132;52.268;5.192;2023-08-21T14:25:16;3.47;;;1.10;;
74626;SDS011;63132;52.268;5.192;2023-08-21T14:27:42;2.63;;;0.82;;
74626;SDS011;63132;52.268;5.192;2023-08-21T14:30:08;3.10;;;0.88;;
74626;SDS011;63132;52.268;5.192;2023-08-21T14:32:33;5.38;;;1.02;;
74626;SDS011;63132;52.268;5.192;2023-08-21T14:34:59;6.30;;;1.20;;
74626;SDS011;63132;52.268;5.192;2023-08-21T14:37:24;3.13;;;1.02;;
74626;SDS011;63132;52.268;5.192;2023-08-21T14:39:50;3.70;;;1.25;;
74626;SDS011;63132;52.268;5.192;2023-08-21T14:42:15;4.78;;;1.35;;
74626;SDS011;63132;52.268;5.192;2023-08-21T14:44:40;4.10;;;1.20;;
74626;SDS011;63132;52.268;5.192;2023-08-21T14:47:06;2.70;;;1.00;;
74626;SDS011;63132;52.268;5.192;2023-08-21T14:49:31;6.30;;;1.52;;
74626;SDS011;63132;52.268;5.192;2023-08-21T14:51:57;9.13;;;1.88;;
74626;SDS011;63132;52.268;5.192;2023-08-21T14:54:23;6.25;;;1.23;;
74626;SDS011;63132;52.268;5.192;2023-08-21T14:56:49;4.70;;;1.38;;
74626;SDS011;63132;52.268;5.192;2023-08-21T14:59:15;3.15;;;1.20;;
74626;SDS011;63132;52.268;5.192;2023-08-21T15:01:40;6.15;;;1.30;;
74626;SDS011;63132;52.268;5.192;2023-08-21T15:04:06;5.10;;;1.50;;
74626;SDS011;63132;52.268;5.192;2023-08-21T15:06:32;3.10;;;0.98;;
74626;SDS011;63132;52.268;5.192;2023-08-21T15:08:58;4.95;;;1.17;;
74626;SDS011;63132;52.268;5.192;2023-08-21T15:11:24;4.50;;;1.30;;
74626;SDS011;63132;52.268;5.192;2023-08-21T15:13:49;4.28;;;1.10;;
74626;SDS011;63132;52.268;5.192;2023-08-21T15:16:14;5.57;;;0.98;;
74626;SDS011;63132;52.268;5.192;2023-08-21T15:18:40;7.32;;;1.63;;
74626;SDS011;63132;52.268;5.192;2023-08-21T15:21:06;6.32;;;1.30;;
74626;SDS011;63132;52.268;5.192;2023-08-21T15:23:31;7.22;;;1.77;;
74626;SDS011;63132;52.268;5.192;2023-08-21T15:25:56;3.08;;;1.40;;
74626;SDS011;63132;52.268;5.192;2023-08-21T15:28:21;5.20;;;1.30;;
74626;SDS011;63132;52.268;5.192;2023-08-21T15:30:47;5.18;;;1.60;;
74626;SDS011;63132;52.268;5.192;2023-08-21T15:33:13;3.60;;;1.10;;
74626;SDS011;63132;52.268;5.192;2023-08-21T15:35:38;8.05;;;1.30;;
74626;SDS011;63132;52.268;5.192;2023-08-21T15:38:03;7.10;;;1.50;;
74626;SDS011;63132;52.268;5.192;2023-08-21T15:40:29;3.75;;;1.20;;
74626;SDS011;63132;52.268;5.192;2023-08-21T15:42:54;4.88;;;1.38;;
74626;SDS011;63132;52.268;5.192;2023-08-21T15:45:21;6.57;;;1.67;;
74626;SDS011;63132;52.268;5.192;2023-08-21T15:47:48;3.00;;;1.30;;
74626;SDS011;63132;52.268;5.192;2023-08-21T15:50:13;7.07;;;1.58;;
74626;SDS011;63132;52.268;5.192;2023-08-21T15:52:39;6.15;;;1.40;;
74626;SDS011;63132;52.268;5.192;2023-08-21T15:55:04;4.18;;;1.52;;
74626;SDS011;63132;52.268;5.192;2023-08-21T15:57:30;4.65;;;1.40;;
74626;SDS011;63132;52.268;5.192;2023-08-21T15:59:56;4.22;;;1.83;;
74626;SDS011;63132;52.268;5.192;2023-08-21T16:02:22;3.72;;;1.00;;
74626;SDS011;63132;52.268;5.192;2023-08-21T16:04:47;7.05;;;1.42;;
74626;SDS011;63132;52.268;5.192;2023-08-21T16:07:13;4.25;;;1.40;;
74626;SDS011;63132;52.268;5.192;2023-08-21T16:09:38;5.28;;;1.55;;
74626;SDS011;63132;52.268;5.192;2023-08-21T16:12:03;6.30;;;2.03;;
74626;SDS011;63132;52.268;5.192;2023-08-21T16:14:29;5.05;;;1.42;;
74626;SDS011;63132;52.268;5.192;2023-08-21T16:16:55;8.88;;;1.83;;
74626;SDS011;63132;52.268;5.192;2023-08-21T16:19:21;5.47;;;1.67;;
74626;SDS011;63132;52.268;5.192;2023-08-21T16:21:47;11.18;;;1.80;;
74626;SDS011;63132;52.268;5.192;2023-08-21T16:24:15;4.53;;;1.48;;
74626;SDS011;63132;52.268;5.192;2023-08-21T16:26:41;5.22;;;1.60;;
74626;SDS011;63132;52.268;5.192;2023-08-21T16:29:07;4.72;;;1.38;;
74626;SDS011;63132;52.268;5.192;2023-08-21T16:31:33;4.88;;;1.33;;
74626;SDS011;63132;52.268;5.192;2023-08-21T16:33:59;5.07;;;1.20;;
74626;SDS011;63132;52.268;5.192;2023-08-21T16:36:24;5.75;;;1.30;;
74626;SDS011;63132;52.268;5.192;2023-08-21T16:38:49;5.30;;;1.38;;
74626;SDS011;63132;52.268;5.192;2023-08-21T16:41:15;4.18;;;1.38;;
74626;SDS011;63132;52.268;5.192;2023-08-21T16:43:40;5.35;;;1.45;;
74626;SDS011;63132;52.268;5.192;2023-08-21T16:46:05;8.30;;;1.60;;
74626;SDS011;63132;52.268;5.192;2023-08-21T16:48:31;4.82;;;1.50;;
74626;SDS011;63132;52.268;5.192;2023-08-21T16:50:56;5.38;;;1.45;;
74626;SDS011;63132;52.268;5.192;2023-08-21T16:53:21;6.57;;;1.35;;
74626;SDS011;63132;52.268;5.192;2023-08-21T16:55:47;5.88;;;1.25;;
74626;SDS011;63132;52.268;5.192;2023-08-21T16:58:13;6.93;;;1.30;;
74626;SDS011;63132;52.268;5.192;2023-08-21T17:00:40;4.65;;;1.40;;
74626;SDS011;63132;52.268;5.192;2023-08-21T17:03:05;3.45;;;1.08;;
74626;SDS011;63132;52.268;5.192;2023-08-21T17:05:31;3.53;;;1.30;;
74626;SDS011;63132;52.268;5.192;2023-08-21T17:07:56;4.07;;;1.15;;
74626;SDS011;63132;52.268;5.192;2023-08-21T17:10:21;3.67;;;1.10;;
74626;SDS011;63132;52.268;5.192;2023-08-21T17:12:48;5.43;;;1.20;;
74626;SDS011;63132;52.268;5.192;2023-08-21T17:15:13;4.85;;;1.30;;
74626;SDS011;63132;52.268;5.192;2023-08-21T17:17:40;4.25;;;1.55;;